UGSB

Batumi International Airport

Airport
ICAO code
UGSB
IATA Code
BUS
Summary
ICAO Region
APAC
ICAO Territory
Location

Batumi,

Serving
Batumi
Elevation
105 ft
Coordinates
41° 36' 37" N , 41° 35' 59" E
Metar
Observation
UGSB 280900Z 14005KT 110V190 CAVOK 13/07 Q1022 NOSIG
Station
BATUMI
Date/Time
2022-11-28 09:00:00
Wind direction
140°
Wind speed
05 kts
Lowest cloud amount
clouds and visibility OK
Temperature
13°C
Dew point
7°C
Humidity
66%
QNH
1022 hPa
Weather condition
n/a

Description

Batumi International Airport is an airport located 2 km south of Batumi, a city on the Black Sea coast and capital of Adjara, an autonomous republic in southwest Georgia. The airport is 20 km northeast of Hopa, Turkey, and serves as a domestic and international airport for Georgia and northeastern Turkey.

Runways

Designator Length Width Surface Rops
13/31 2233 46 ASP No/No

Airport map

Aerial View

SKYbrary Partners:

Safety knowledge contributed by: